sensor_id;sensor_type;location;lat;lon;timestamp;temperature;humidity
52285;DHT22;38238;53.304;6.606;2022-08-27T00:00:15;17.30;99.90
52285;DHT22;38238;53.304;6.606;2022-08-27T00:02:42;17.20;99.90
52285;DHT22;38238;53.304;6.606;2022-08-27T00:05:09;17.20;99.90
52285;DHT22;38238;53.304;6.606;2022-08-27T00:07:35;17.20;99.90
52285;DHT22;38238;53.304;6.606;2022-08-27T00:10:02;17.20;99.90
52285;DHT22;38238;53.304;6.606;2022-08-27T00:12:28;17.20;99.90
52285;DHT22;38238;53.304;6.606;2022-08-27T00:14:54;17.20;99.90
52285;DHT22;38238;53.304;6.606;2022-08-27T00:17:20;17.20;99.90
52285;DHT22;38238;53.304;6.606;2022-08-27T00:19:45;17.10;99.90
52285;DHT22;38238;53.304;6.606;2022-08-27T00:22:11;17.10;99.90
52285;DHT22;38238;53.304;6.606;2022-08-27T00:24:38;17.10;99.90
52285;DHT22;38238;53.304;6.606;2022-08-27T00:27:03;17.10;99.90
52285;DHT22;38238;53.304;6.606;2022-08-27T00:29:29;17.10;99.90
52285;DHT22;38238;53.304;6.606;2022-08-27T00:31:55;17.10;99.90
52285;DHT22;38238;53.304;6.606;2022-08-27T00:34:21;17.00;99.90
52285;DHT22;38238;53.304;6.606;2022-08-27T00:36:49;17.00;99.90
52285;DHT22;38238;53.304;6.606;2022-08-27T00:39:15;17.00;99.90
52285;DHT22;38238;53.304;6.606;2022-08-27T00:41:41;17.00;99.90
52285;DHT22;38238;53.304;6.606;2022-08-27T00:44:08;16.90;99.90
52285;DHT22;38238;53.304;6.606;2022-08-27T00:49:54;16.80;99.90
52285;DHT22;38238;53.304;6.606;2022-08-27T00:52:21;16.80;99.90
52285;DHT22;38238;53.304;6.606;2022-08-27T00:54:51;16.70;99.90
52285;DHT22;38238;53.304;6.606;2022-08-27T00:57:18;16.70;99.90
52285;DHT22;38238;53.304;6.606;2022-08-27T00:59:44;16.60;99.90
52285;DHT22;38238;53.304;6.606;2022-08-27T01:02:10;16.60;99.90
52285;DHT22;38238;53.304;6.606;2022-08-27T01:05:00;16.60;99.90
52285;DHT22;38238;53.304;6.606;2022-08-27T01:07:29;16.50;99.90
52285;DHT22;38238;53.304;6.606;2022-08-27T01:09:58;16.50;99.90
52285;DHT22;38238;53.304;6.606;2022-08-27T01:12:25;16.40;99.90
52285;DHT22;38238;53.304;6.606;2022-08-27T01:14:51;16.40;99.90
52285;DHT22;38238;53.304;6.606;2022-08-27T01:17:17;16.40;99.90
52285;DHT22;38238;53.304;6.606;2022-08-27T01:19:48;16.40;99.90
52285;DHT22;38238;53.304;6.606;2022-08-27T01:24:49;16.40;99.90
52285;DHT22;38238;53.304;6.606;2022-08-27T01:27:19;16.30;99.90
52285;DHT22;38238;53.304;6.606;2022-08-27T01:29:46;16.30;99.90
52285;DHT22;38238;53.304;6.606;2022-08-27T01:32:20;16.30;99.90
52285;DHT22;38238;53.304;6.606;2022-08-27T01:34:47;16.30;99.90
52285;DHT22;38238;53.304;6.606;2022-08-27T01:37:14;16.30;99.90
52285;DHT22;38238;53.304;6.606;2022-08-27T01:39:41;16.20;99.90
52285;DHT22;38238;53.304;6.606;2022-08-27T01:42:19;16.20;99.90
52285;DHT22;38238;53.304;6.606;2022-08-27T01:44:52;16.10;99.90
52285;DHT22;38238;53.304;6.606;2022-08-27T01:47:21;16.10;99.90
52285;DHT22;38238;53.304;6.606;2022-08-27T01:49:47;16.10;99.90
52285;DHT22;38238;53.304;6.606;2022-08-27T01:52:16;16.00;99.90
52285;DHT22;38238;53.304;6.606;2022-08-27T01:54:42;16.00;99.90
52285;DHT22;38238;53.304;6.606;2022-08-27T01:57:08;16.00;99.90
52285;DHT22;38238;53.304;6.606;2022-08-27T01:59:34;16.00;99.90
52285;DHT22;38238;53.304;6.606;2022-08-27T02:02:00;16.00;99.90
52285;DHT22;38238;53.304;6.606;2022-08-27T02:04:28;16.00;99.90
52285;DHT22;38238;53.304;6.606;2022-08-27T02:06:54;16.00;99.90
52285;DHT22;38238;53.304;6.606;2022-08-27T02:09:20;16.00;99.90
52285;DHT22;38238;53.304;6.606;2022-08-27T02:11:46;16.00;99.90
52285;DHT22;38238;53.304;6.606;2022-08-27T02:14:11;16.00;99.90
52285;DHT22;38238;53.304;6.606;2022-08-27T02:16:38;16.00;99.90
52285;DHT22;38238;53.304;6.606;2022-08-27T02:19:04;16.00;99.90
52285;DHT22;38238;53.304;6.606;2022-08-27T02:21:30;15.90;99.90
52285;DHT22;38238;53.304;6.606;2022-08-27T02:23:56;15.90;99.90
52285;DHT22;38238;53.304;6.606;2022-08-27T02:26:21;15.90;99.90
52285;DHT22;38238;53.304;6.606;2022-08-27T02:28:47;15.90;99.90
52285;DHT22;38238;53.304;6.606;2022-08-27T02:31:13;15.90;99.90
52285;DHT22;38238;53.304;6.606;2022-08-27T02:33:39;15.90;99.90
52285;DHT22;38238;53.304;6.606;2022-08-27T02:36:05;15.90;99.90
52285;DHT22;38238;53.304;6.606;2022-08-27T02:38:30;15.90;99.90
52285;DHT22;38238;53.304;6.606;2022-08-27T02:40:56;15.90;99.90
52285;DHT22;38238;53.304;6.606;2022-08-27T02:43:22;15.90;99.90
52285;DHT22;38238;53.304;6.606;2022-08-27T02:45:48;15.90;99.90
52285;DHT22;38238;53.304;6.606;2022-08-27T02:48:15;15.90;99.90
52285;DHT22;38238;53.304;6.606;2022-08-27T02:50:40;15.90;99.90
52285;DHT22;38238;53.304;6.606;2022-08-27T02:53:08;15.90;99.90
52285;DHT22;38238;53.304;6.606;2022-08-27T02:55:34;15.90;99.90
52285;DHT22;38238;53.304;6.606;2022-08-27T02:58:00;15.90;99.90
52285;DHT22;38238;53.304;6.606;2022-08-27T03:00:28;15.90;99.90
52285;DHT22;38238;53.304;6.606;2022-08-27T03:02:54;15.90;99.90
52285;DHT22;38238;53.304;6.606;2022-08-27T03:05:20;16.00;99.90
52285;DHT22;38238;53.304;6.606;2022-08-27T03:07:46;16.00;99.90
52285;DHT22;38238;53.304;6.606;2022-08-27T03:10:15;16.00;99.90
52285;DHT22;38238;53.304;6.606;2022-08-27T03:12:41;16.00;99.90
52285;DHT22;38238;53.304;6.606;2022-08-27T03:15:09;16.00;99.90
52285;DHT22;38238;53.304;6.606;2022-08-27T03:17:35;16.00;99.90
52285;DHT22;38238;53.304;6.606;2022-08-27T03:20:20;16.00;99.90
52285;DHT22;38238;53.304;6.606;2022-08-27T03:22:46;16.10;99.90
52285;DHT22;38238;53.304;6.606;2022-08-27T03:25:12;16.10;99.90
52285;DHT22;38238;53.304;6.606;2022-08-27T03:27:38;16.10;99.90
52285;DHT22;38238;53.304;6.606;2022-08-27T03:30:08;16.20;99.90
52285;DHT22;38238;53.304;6.606;2022-08-27T03:32:34;16.10;99.90
52285;DHT22;38238;53.304;6.606;2022-08-27T03:35:00;16.20;99.90
52285;DHT22;38238;53.304;6.606;2022-08-27T03:37:26;16.20;99.90
52285;DHT22;38238;53.304;6.606;2022-08-27T03:39:53;16.20;99.90
52285;DHT22;38238;53.304;6.606;2022-08-27T03:42:20;16.10;99.90
52285;DHT22;38238;53.304;6.606;2022-08-27T03:44:46;16.20;99.90
52285;DHT22;38238;53.304;6.606;2022-08-27T03:47:12;16.20;99.90
52285;DHT22;38238;53.304;6.606;2022-08-27T03:49:38;16.20;99.90
52285;DHT22;38238;53.304;6.606;2022-08-27T03:52:04;16.20;99.90
52285;DHT22;38238;53.304;6.606;2022-08-27T03:54:30;16.10;99.90
52285;DHT22;38238;53.304;6.606;2022-08-27T03:56:57;16.10;99.90
52285;DHT22;38238;53.304;6.606;2022-08-27T03:59:22;16.10;99.90
52285;DHT22;38238;53.304;6.606;2022-08-27T04:01:48;16.10;99.90
52285;DHT22;38238;53.304;6.606;2022-08-27T04:04:14;16.00;99.90
52285;DHT22;38238;53.304;6.606;2022-08-27T04:06:40;16.00;99.90
52285;DHT22;38238;53.304;6.606;2022-08-27T04:09:06;16.00;99.90
52285;DHT22;38238;53.304;6.606;2022-08-27T04:11:35;15.90;99.90
52285;DHT22;38238;53.304;6.606;2022-08-27T04:14:05;15.90;99.90
52285;DHT22;38238;53.304;6.606;2022-08-27T04:16:34;15.80;99.90
52285;DHT22;38238;53.304;6.606;2022-08-27T04:19:01;15.80;99.90
52285;DHT22;38238;53.304;6.606;2022-08-27T04:21:28;15.70;99.90
52285;DHT22;38238;53.304;6.606;2022-08-27T04:23:55;15.80;99.90
52285;DHT22;38238;53.304;6.606;2022-08-27T04:26:21;15.70;99.90
52285;DHT22;38238;53.304;6.606;2022-08-27T04:28:47;15.70;99.90
52285;DHT22;38238;53.304;6.606;2022-08-27T04:31:13;15.70;99.90
52285;DHT22;38238;53.304;6.606;2022-08-27T04:33:39;15.70;99.90
52285;DHT22;38238;53.304;6.606;2022-08-27T04:36:07;15.70;99.90
52285;DHT22;38238;53.304;6.606;2022-08-27T04:38:33;15.70;99.90
52285;DHT22;38238;53.304;6.606;2022-08-27T04:41:06;15.80;99.90
52285;DHT22;38238;53.304;6.606;2022-08-27T04:43:49;15.80;99.90
52285;DHT22;38238;53.304;6.606;2022-08-27T04:46:22;15.80;99.90
52285;DHT22;38238;53.304;6.606;2022-08-27T04:48:49;15.90;99.90
52285;DHT22;38238;53.304;6.606;2022-08-27T04:51:15;15.90;99.90
52285;DHT22;38238;53.304;6.606;2022-08-27T04:53:40;15.90;99.90
52285;DHT22;38238;53.304;6.606;2022-08-27T04:56:06;16.60;99.90
52285;DHT22;38238;53.304;6.606;2022-08-27T04:58:33;16.00;99.90
52285;DHT22;38238;53.304;6.606;2022-08-27T05:00:58;16.00;99.90
52285;DHT22;38238;53.304;6.606;2022-08-27T05:03:26;16.10;99.90
52285;DHT22;38238;53.304;6.606;2022-08-27T05:06:01;16.10;99.90
52285;DHT22;38238;53.304;6.606;2022-08-27T05:08:28;16.20;99.90
52285;DHT22;38238;53.304;6.606;2022-08-27T05:10:54;16.20;99.90
52285;DHT22;38238;53.304;6.606;2022-08-27T05:13:20;16.30;99.90
52285;DHT22;38238;53.304;6.606;2022-08-27T05:15:49;16.30;99.90
52285;DHT22;38238;53.304;6.606;2022-08-27T05:18:15;16.30;99.90
52285;DHT22;38238;53.304;6.606;2022-08-27T05:20:48;16.40;99.90
52285;DHT22;38238;53.304;6.606;2022-08-27T05:23:16;16.40;99.90
52285;DHT22;38238;53.304;6.606;2022-08-27T05:25:45;16.50;99.90
52285;DHT22;38238;53.304;6.606;2022-08-27T05:28:11;16.50;99.90
52285;DHT22;38238;53.304;6.606;2022-08-27T05:30:45;16.50;99.90
52285;DHT22;38238;53.304;6.606;2022-08-27T05:33:13;16.50;99.90
52285;DHT22;38238;53.304;6.606;2022-08-27T05:35:47;16.60;99.90
52285;DHT22;38238;53.304;6.606;2022-08-27T05:38:13;16.60;99.90
52285;DHT22;38238;53.304;6.606;2022-08-27T05:40:40;16.70;99.90
52285;DHT22;38238;53.304;6.606;2022-08-27T05:43:06;16.70;99.90
52285;DHT22;38238;53.304;6.606;2022-08-27T05:45:43;16.70;99.90
52285;DHT22;38238;53.304;6.606;2022-08-27T05:48:10;16.80;99.90
52285;DHT22;38238;53.304;6.606;2022-08-27T05:50:40;16.90;99.90
52285;DHT22;38238;53.304;6.606;2022-08-27T05:53:08;16.90;99.90
52285;DHT22;38238;53.304;6.606;2022-08-27T05:55:38;16.90;99.90
52285;DHT22;38238;53.304;6.606;2022-08-27T05:58:04;17.00;99.90
52285;DHT22;38238;53.304;6.606;2022-08-27T06:00:30;17.00;99.90
52285;DHT22;38238;53.304;6.606;2022-08-27T06:03:15;17.10;99.90
52285;DHT22;38238;53.304;6.606;2022-08-27T06:05:40;17.20;99.90
52285;DHT22;38238;53.304;6.606;2022-08-27T06:08:06;17.20;99.90
52285;DHT22;38238;53.304;6.606;2022-08-27T06:10:32;17.30;99.90
52285;DHT22;38238;53.304;6.606;2022-08-27T06:12:58;17.30;99.90
52285;DHT22;38238;53.304;6.606;2022-08-27T06:15:23;17.40;99.90
52285;DHT22;38238;53.304;6.606;2022-08-27T06:17:49;17.50;99.90
52285;DHT22;38238;53.304;6.606;2022-08-27T06:20:15;17.50;99.90
52285;DHT22;38238;53.304;6.606;2022-08-27T06:22:40;17.60;99.90
52285;DHT22;38238;53.304;6.606;2022-08-27T06:25:06;17.70;99.90
52285;DHT22;38238;53.304;6.606;2022-08-27T06:27:32;17.70;99.90
52285;DHT22;38238;53.304;6.606;2022-08-27T06:29:58;17.80;99.90
52285;DHT22;38238;53.304;6.606;2022-08-27T06:32:23;17.90;99.90
52285;DHT22;38238;53.304;6.606;2022-08-27T06:34:50;17.90;99.90
52285;DHT22;38238;53.304;6.606;2022-08-27T06:37:16;17.90;99.90
52285;DHT22;38238;53.304;6.606;2022-08-27T06:39:41;18.00;99.90
52285;DHT22;38238;53.304;6.606;2022-08-27T06:42:10;18.00;99.90
52285;DHT22;38238;53.304;6.606;2022-08-27T06:44:36;18.00;99.90
52285;DHT22;38238;53.304;6.606;2022-08-27T06:47:02;18.10;99.90
52285;DHT22;38238;53.304;6.606;2022-08-27T06:49:28;18.10;99.90
52285;DHT22;38238;53.304;6.606;2022-08-27T06:51:54;18.20;99.90
52285;DHT22;38238;53.304;6.606;2022-08-27T06:54:20;18.20;99.90
52285;DHT22;38238;53.304;6.606;2022-08-27T06:56:46;18.20;99.90
52285;DHT22;38238;53.304;6.606;2022-08-27T06:59:16;18.30;99.90
52285;DHT22;38238;53.304;6.606;2022-08-27T07:01:46;18.30;99.90
52285;DHT22;38238;53.304;6.606;2022-08-27T07:04:18;18.30;99.90
52285;DHT22;38238;53.304;6.606;2022-08-27T07:06:44;18.30;99.90
52285;DHT22;38238;53.304;6.606;2022-08-27T07:09:10;18.30;99.90
52285;DHT22;38238;53.304;6.606;2022-08-27T07:11:37;18.30;99.90
52285;DHT22;38238;53.304;6.606;2022-08-27T07:14:03;18.30;99.90
52285;DHT22;38238;53.304;6.606;2022-08-27T07:16:30;18.30;99.90
52285;DHT22;38238;53.304;6.606;2022-08-27T07:18:58;18.40;99.90
52285;DHT22;38238;53.304;6.606;2022-08-27T07:21:25;18.50;99.90
52285;DHT22;38238;53.304;6.606;2022-08-27T07:23:53;18.50;99.90
52285;DHT22;38238;53.304;6.606;2022-08-27T07:26:21;18.60;99.90
52285;DHT22;38238;53.304;6.606;2022-08-27T07:28:48;18.60;99.90
52285;DHT22;38238;53.304;6.606;2022-08-27T07:31:17;18.60;99.90
52285;DHT22;38238;53.304;6.606;2022-08-27T07:33:43;18.60;99.90
52285;DHT22;38238;53.304;6.606;2022-08-27T07:36:10;18.60;99.90
52285;DHT22;38238;53.304;6.606;2022-08-27T07:38:36;18.60;99.90
52285;DHT22;38238;53.304;6.606;2022-08-27T07:41:10;18.70;99.90
52285;DHT22;38238;53.304;6.606;2022-08-27T07:43:37;18.70;99.90
52285;DHT22;38238;53.304;6.606;2022-08-27T07:46:22;18.90;99.90
52285;DHT22;38238;53.304;6.606;2022-08-27T07:48:49;18.80;99.90
52285;DHT22;38238;53.304;6.606;2022-08-27T07:51:17;18.70;99.90
52285;DHT22;38238;53.304;6.606;2022-08-27T07:53:44;18.70;99.90
52285;DHT22;38238;53.304;6.606;2022-08-27T07:56:10;18.70;99.90
52285;DHT22;38238;53.304;6.606;2022-08-27T07:58:37;18.60;99.90
52285;DHT22;38238;53.304;6.606;2022-08-27T08:01:03;18.70;99.90
52285;DHT22;38238;53.304;6.606;2022-08-27T08:03:29;18.70;99.90
52285;DHT22;38238;53.304;6.606;2022-08-27T08:06:00;18.70;99.90
52285;DHT22;38238;53.304;6.606;2022-08-27T08:08:26;18.70;99.90
52285;DHT22;38238;53.304;6.606;2022-08-27T08:10:56;18.70;99.90
52285;DHT22;38238;53.304;6.606;2022-08-27T08:13:22;18.80;99.90
52285;DHT22;38238;53.304;6.606;2022-08-27T08:15:47;18.80;99.90
52285;DHT22;38238;53.304;6.606;2022-08-27T08:18:14;18.80;99.90
52285;DHT22;38238;53.304;6.606;2022-08-27T08:20:40;18.80;99.90
52285;DHT22;38238;53.304;6.606;2022-08-27T08:23:06;18.80;99.90
52285;DHT22;38238;53.304;6.606;2022-08-27T08:25:32;18.80;99.90
52285;DHT22;38238;53.304;6.606;2022-08-27T08:27:58;18.70;99.90
52285;DHT22;38238;53.304;6.606;2022-08-27T08:30:25;18.70;99.90
52285;DHT22;38238;53.304;6.606;2022-08-27T08:32:51;18.70;99.90
52285;DHT22;38238;53.304;6.606;2022-08-27T08:35:17;18.70;99.90
52285;DHT22;38238;53.304;6.606;2022-08-27T08:37:44;18.80;99.90
52285;DHT22;38238;53.304;6.606;2022-08-27T08:40:12;20.00;99.90
52285;DHT22;38238;53.304;6.606;2022-08-27T08:42:50;19.10;99.90
52285;DHT22;38238;53.304;6.606;2022-08-27T08:45:21;19.10;99.90
52285;DHT22;38238;53.304;6.606;2022-08-27T08:47:57;19.10;99.90
52285;DHT22;38238;53.304;6.606;2022-08-27T08:53:49;19.10;99.90
52285;DHT22;38238;53.304;6.606;2022-08-27T08:56:26;19.20;99.90
52285;DHT22;38238;53.304;6.606;2022-08-27T08:59:07;19.20;99.90
52285;DHT22;38238;53.304;6.606;2022-08-27T09:01:33;19.20;99.90
52285;DHT22;38238;53.304;6.606;2022-08-27T09:04:02;19.30;99.90
52285;DHT22;38238;53.304;6.606;2022-08-27T09:09:45;19.40;99.90
52285;DHT22;38238;53.304;6.606;2022-08-27T09:12:12;19.40;99.90
52285;DHT22;38238;53.304;6.606;2022-08-27T09:14:45;19.50;99.90
52285;DHT22;38238;53.304;6.606;2022-08-27T09:17:13;19.90;99.90
52285;DHT22;38238;53.304;6.606;2022-08-27T09:19:39;19.70;99.90
52285;DHT22;38238;53.304;6.606;2022-08-27T09:25:25;20.50;99.90
52285;DHT22;38238;53.304;6.606;2022-08-27T09:27:56;21.50;99.90
52285;DHT22;38238;53.304;6.606;2022-08-27T09:30:27;22.40;98.50
52285;DHT22;38238;53.304;6.606;2022-08-27T09:33:03;22.30;97.30
52285;DHT22;38238;53.304;6.606;2022-08-27T09:35:38;21.80;97.70
52285;DHT22;38238;53.304;6.606;2022-08-27T09:38:05;21.20;98.00
52285;DHT22;38238;53.304;6.606;2022-08-27T09:40:37;20.80;98.40
52285;DHT22;38238;53.304;6.606;2022-08-27T09:43:08;20.60;99.10
52285;DHT22;38238;53.304;6.606;2022-08-27T09:45:51;20.60;99.20
52285;DHT22;38238;53.304;6.606;2022-08-27T09:48:26;20.80;98.80
52285;DHT22;38238;53.304;6.606;2022-08-27T09:50:55;20.80;99.00
52285;DHT22;38238;53.304;6.606;2022-08-27T09:55:56;20.60;98.20
52285;DHT22;38238;53.304;6.606;2022-08-27T09:58:43;20.40;97.80
52285;DHT22;38238;53.304;6.606;2022-08-27T10:01:20;20.40;97.80
52285;DHT22;38238;53.304;6.606;2022-08-27T10:03:46;20.50;97.60
52285;DHT22;38238;53.304;6.606;2022-08-27T10:06:12;20.50;98.10
52285;DHT22;38238;53.304;6.606;2022-08-27T10:08:46;20.70;98.20
52285;DHT22;38238;53.304;6.606;2022-08-27T10:11:22;21.30;97.80
52285;DHT22;38238;53.304;6.606;2022-08-27T10:14:17;21.60;97.10
52285;DHT22;38238;53.304;6.606;2022-08-27T10:17:03;22.00;96.60
52285;DHT22;38238;53.304;6.606;2022-08-27T10:20:10;22.40;95.20
52285;DHT22;38238;53.304;6.606;2022-08-27T10:30:13;21.90;95.50
52285;DHT22;38238;53.304;6.606;2022-08-27T10:33:15;21.60;96.30
52285;DHT22;38238;53.304;6.606;2022-08-27T10:38:50;21.00;97.40
52285;DHT22;38238;53.304;6.606;2022-08-27T10:41:25;20.90;97.80
52285;DHT22;38238;53.304;6.606;2022-08-27T10:46:48;20.90;97.10
52285;DHT22;38238;53.304;6.606;2022-08-27T10:52:42;20.70;97.10
52285;DHT22;38238;53.304;6.606;2022-08-27T10:55:32;20.60;97.10
52285;DHT22;38238;53.304;6.606;2022-08-27T10:58:20;20.40;96.90
52285;DHT22;38238;53.304;6.606;2022-08-27T11:01:05;20.40;96.80
52285;DHT22;38238;53.304;6.606;2022-08-27T11:03:58;20.40;96.60
52285;DHT22;38238;53.304;6.606;2022-08-27T11:06:37;20.50;96.50
52285;DHT22;38238;53.304;6.606;2022-08-27T11:09:20;20.90;96.40
52285;DHT22;38238;53.304;6.606;2022-08-27T11:11:57;21.50;95.60
52285;DHT22;38238;53.304;6.606;2022-08-27T11:14:53;22.10;94.40
52285;DHT22;38238;53.304;6.606;2022-08-27T11:17:34;22.60;94.50
52285;DHT22;38238;53.304;6.606;2022-08-27T11:23:07;22.30;93.60
52285;DHT22;38238;53.304;6.606;2022-08-27T11:25:39;21.80;94.20
52285;DHT22;38238;53.304;6.606;2022-08-27T11:28:09;21.40;94.50
52285;DHT22;38238;53.304;6.606;2022-08-27T11:30:51;21.20;95.40
52285;DHT22;38238;53.304;6.606;2022-08-27T11:43:58;21.50;95.40
52285;DHT22;38238;53.304;6.606;2022-08-27T11:46:41;21.70;93.90
52285;DHT22;38238;53.304;6.606;2022-08-27T11:49:08;21.50;93.70
52285;DHT22;38238;53.304;6.606;2022-08-27T11:51:37;21.40;93.80
52285;DHT22;38238;53.304;6.606;2022-08-27T11:54:09;21.60;94.10
52285;DHT22;38238;53.304;6.606;2022-08-27T11:56:46;21.80;93.70
52285;DHT22;38238;53.304;6.606;2022-08-27T12:02:09;21.70;93.50
52285;DHT22;38238;53.304;6.606;2022-08-27T12:04:38;21.30;94.00
52285;DHT22;38238;53.304;6.606;2022-08-27T12:15:07;20.70;94.70
52285;DHT22;38238;53.304;6.606;2022-08-27T12:20:29;21.10;94.70
52285;DHT22;38238;53.304;6.606;2022-08-27T12:23:11;21.60;94.40
52285;DHT22;38238;53.304;6.606;2022-08-27T12:26:53;22.00;92.70
52285;DHT22;38238;53.304;6.606;2022-08-27T12:28:46;21.80;93.10
52285;DHT22;38238;53.304;6.606;2022-08-27T12:31:18;21.60;93.40
52285;DHT22;38238;53.304;6.606;2022-08-27T12:33:49;21.70;93.60
52285;DHT22;38238;53.304;6.606;2022-08-27T12:36:19;21.70;94.00
52285;DHT22;38238;53.304;6.606;2022-08-27T12:38:57;21.50;94.00
52285;DHT22;38238;53.304;6.606;2022-08-27T12:47:07;20.90;94.40
52285;DHT22;38238;53.304;6.606;2022-08-27T12:49:53;20.90;94.50
52285;DHT22;38238;53.304;6.606;2022-08-27T13:00:21;20.90;94.50
52285;DHT22;38238;53.304;6.606;2022-08-27T13:02:57;21.00;94.70
52285;DHT22;38238;53.304;6.606;2022-08-27T13:05:38;21.10;94.00
52285;DHT22;38238;53.304;6.606;2022-08-27T13:08:03;21.10;93.80
52285;DHT22;38238;53.304;6.606;2022-08-27T13:10:30;21.10;93.60
52285;DHT22;38238;53.304;6.606;2022-08-27T13:13:08;21.10;93.90
52285;DHT22;38238;53.304;6.606;2022-08-27T13:15:35;21.00;93.40
52285;DHT22;38238;53.304;6.606;2022-08-27T13:18:04;21.00;93.80
52285;DHT22;38238;53.304;6.606;2022-08-27T13:20:36;21.10;93.10
52285;DHT22;38238;53.304;6.606;2022-08-27T13:23:02;21.20;93.20
52285;DHT22;38238;53.304;6.606;2022-08-27T13:25:29;21.30;93.50
52285;DHT22;38238;53.304;6.606;2022-08-27T13:28:11;21.30;93.40
52285;DHT22;38238;53.304;6.606;2022-08-27T13:30:43;21.30;93.80
52285;DHT22;38238;53.304;6.606;2022-08-27T13:33:16;21.10;93.60
52285;DHT22;38238;53.304;6.606;2022-08-27T13:35:44;20.90;93.40
52285;DHT22;38238;53.304;6.606;2022-08-27T13:38:10;20.80;94.20
52285;DHT22;38238;53.304;6.606;2022-08-27T13:40:56;20.90;94.10
52285;DHT22;38238;53.304;6.606;2022-08-27T13:43:34;21.00;94.70
52285;DHT22;38238;53.304;6.606;2022-08-27T13:46:04;21.20;94.60
52285;DHT22;38238;53.304;6.606;2022-08-27T13:48:30;21.40;94.60
52285;DHT22;38238;53.304;6.606;2022-08-27T13:50:57;21.40;94.30
52285;DHT22;38238;53.304;6.606;2022-08-27T13:53:27;21.20;94.20
52285;DHT22;38238;53.304;6.606;2022-08-27T13:56:33;21.00;94.40
52285;DHT22;38238;53.304;6.606;2022-08-27T13:59:07;20.90;95.00
52285;DHT22;38238;53.304;6.606;2022-08-27T14:01:34;20.70;95.20
52285;DHT22;38238;53.304;6.606;2022-08-27T14:04:03;20.50;95.60
52285;DHT22;38238;53.304;6.606;2022-08-27T14:06:45;20.50;95.70
52285;DHT22;38238;53.304;6.606;2022-08-27T14:09:28;20.40;95.60
52285;DHT22;38238;53.304;6.606;2022-08-27T14:12:05;20.20;95.70
52285;DHT22;38238;53.304;6.606;2022-08-27T14:14:40;20.20;95.90
52285;DHT22;38238;53.304;6.606;2022-08-27T14:17:34;20.10;95.80
52285;DHT22;38238;53.304;6.606;2022-08-27T14:20:02;20.10;95.70
52285;DHT22;38238;53.304;6.606;2022-08-27T14:22:28;19.10;95.60
52285;DHT22;38238;53.304;6.606;2022-08-27T14:24:53;20.10;95.60
52285;DHT22;38238;53.304;6.606;2022-08-27T14:27:19;20.10;95.40
52285;DHT22;38238;53.304;6.606;2022-08-27T14:29:48;20.10;95.40
52285;DHT22;38238;53.304;6.606;2022-08-27T14:32:15;20.00;95.10
52285;DHT22;38238;53.304;6.606;2022-08-27T14:34:44;20.10;95.20
52285;DHT22;38238;53.304;6.606;2022-08-27T14:37:12;20.30;95.20
52285;DHT22;38238;53.304;6.606;2022-08-27T14:39:38;20.40;95.20
52285;DHT22;38238;53.304;6.606;2022-08-27T14:42:05;20.40;95.60
52285;DHT22;38238;53.304;6.606;2022-08-27T14:44:31;20.30;95.70
52285;DHT22;38238;53.304;6.606;2022-08-27T14:46:57;20.30;95.90
52285;DHT22;38238;53.304;6.606;2022-08-27T14:49:33;20.20;96.00
52285;DHT22;38238;53.304;6.606;2022-08-27T14:52:02;20.20;96.20
52285;DHT22;38238;53.304;6.606;2022-08-27T14:54:28;20.10;96.50
52285;DHT22;38238;53.304;6.606;2022-08-27T14:56:54;20.00;96.40
52285;DHT22;38238;53.304;6.606;2022-08-27T14:59:20;19.90;96.40
52285;DHT22;38238;53.304;6.606;2022-08-27T15:01:47;19.80;96.10
52285;DHT22;38238;53.304;6.606;2022-08-27T15:04:13;19.80;95.70
52285;DHT22;38238;53.304;6.606;2022-08-27T15:06:39;19.70;95.80
52285;DHT22;38238;53.304;6.606;2022-08-27T15:09:05;19.70;95.90
52285;DHT22;38238;53.304;6.606;2022-08-27T15:11:33;19.80;95.50
52285;DHT22;38238;53.304;6.606;2022-08-27T15:14:02;19.70;95.60
52285;DHT22;38238;53.304;6.606;2022-08-27T15:18:55;19.70;94.90
52285;DHT22;38238;53.304;6.606;2022-08-27T15:21:21;19.70;94.90
52285;DHT22;38238;53.304;6.606;2022-08-27T15:23:48;19.90;95.10
52285;DHT22;38238;53.304;6.606;2022-08-27T15:26:14;19.90;95.40
52285;DHT22;38238;53.304;6.606;2022-08-27T15:28:40;19.80;95.70
52285;DHT22;38238;53.304;6.606;2022-08-27T15:31:06;19.70;96.00
52285;DHT22;38238;53.304;6.606;2022-08-27T15:33:32;19.70;96.10
52285;DHT22;38238;53.304;6.606;2022-08-27T15:35:58;19.60;96.30
52285;DHT22;38238;53.304;6.606;2022-08-27T15:38:23;19.60;96.40
52285;DHT22;38238;53.304;6.606;2022-08-27T15:40:49;19.50;96.70
52285;DHT22;38238;53.304;6.606;2022-08-27T15:43:16;19.60;96.50
52285;DHT22;38238;53.304;6.606;2022-08-27T15:45:42;19.60;96.50
52285;DHT22;38238;53.304;6.606;2022-08-27T15:48:08;19.50;96.30
52285;DHT22;38238;53.304;6.606;2022-08-27T15:50:35;19.40;96.60
52285;DHT22;38238;53.304;6.606;2022-08-27T15:53:05;19.50;96.40
52285;DHT22;38238;53.304;6.606;2022-08-27T15:55:35;19.40;96.40
52285;DHT22;38238;53.304;6.606;2022-08-27T15:58:02;19.40;96.30
52285;DHT22;38238;53.304;6.606;2022-08-27T16:00:29;19.30;96.30
52285;DHT22;38238;53.304;6.606;2022-08-27T16:02:59;19.20;96.20
52285;DHT22;38238;53.304;6.606;2022-08-27T16:05:29;19.20;96.20
52285;DHT22;38238;53.304;6.606;2022-08-27T16:07:56;19.20;96.40
52285;DHT22;38238;53.304;6.606;2022-08-27T16:10:21;19.40;96.00
52285;DHT22;38238;53.304;6.606;2022-08-27T16:12:47;19.40;95.60
52285;DHT22;38238;53.304;6.606;2022-08-27T16:15:13;19.40;95.40
52285;DHT22;38238;53.304;6.606;2022-08-27T16:17:40;19.30;95.40
52285;DHT22;38238;53.304;6.606;2022-08-27T16:20:07;19.20;95.50
52285;DHT22;38238;53.304;6.606;2022-08-27T16:22:33;19.20;95.90
52285;DHT22;38238;53.304;6.606;2022-08-27T16:25:00;19.10;96.10
52285;DHT22;38238;53.304;6.606;2022-08-27T16:27:26;18.90;96.30
52285;DHT22;38238;53.304;6.606;2022-08-27T16:29:51;18.90;96.60
52285;DHT22;38238;53.304;6.606;2022-08-27T16:32:18;18.90;96.50
52285;DHT22;38238;53.304;6.606;2022-08-27T16:34:44;18.90;96.60
52285;DHT22;38238;53.304;6.606;2022-08-27T16:37:10;19.00;96.90
52285;DHT22;38238;53.304;6.606;2022-08-27T16:39:36;18.90;97.10
52285;DHT22;38238;53.304;6.606;2022-08-27T16:42:02;18.90;97.10
52285;DHT22;38238;53.304;6.606;2022-08-27T16:44:28;19.00;96.90
52285;DHT22;38238;53.304;6.606;2022-08-27T16:46:54;19.00;96.90
52285;DHT22;38238;53.304;6.606;2022-08-27T16:49:20;19.10;96.70
52285;DHT22;38238;53.304;6.606;2022-08-27T16:52:04;19.10;96.70
52285;DHT22;38238;53.304;6.606;2022-08-27T16:54:32;19.10;96.80
52285;DHT22;38238;53.304;6.606;2022-08-27T16:56:58;19.10;96.60
52285;DHT22;38238;53.304;6.606;2022-08-27T16:59:23;19.10;96.50
52285;DHT22;38238;53.304;6.606;2022-08-27T17:01:51;19.10;96.50